Time;durP1;ratioP1;P1;durP2;ratioP2;P2;SDS_P1;SDS_P2;PMS_P1;PMS_P2;Temp;Humidity;BMP_temperature;BMP_pressure;BME280_temperature;BME280_humidity;BME280_pressure;Samples;Min_cycle;Max_cycle;Signal;HPM_P1;HPM_P2
2023/07/30 00:00:33;;;;;;;0.05;0.05;;;;;;;18.82;61.67;100935.19;5095622;28;20028;-81
2023/07/30 00:03:00;;;;;;;0.10;0.10;;;;;;;18.81;61.93;100930.78;5094148;28;20028;-80
2023/07/30 00:05:26;;;;;;;0.10;0.10;;;;;;;18.80;62.39;100945.13;5094340;28;20119;-80
2023/07/30 00:07:53;;;;;;;0.10;0.10;;;;;;;18.76;62.68;100939.06;5095754;28;20032;-80
2023/07/30 00:10:20;;;;;;;0.10;0.10;;;;;;;18.79;62.56;100935.34;5095873;28;20395;-80
2023/07/30 00:12:46;;;;;;;0.00;0.00;;;;;;;18.80;62.09;100942.44;5093160;28;20103;-79
2023/07/30 00:15:12;;;;;;;0.10;0.10;;;;;;;18.72;62.73;100950.91;5093756;28;20026;-80
2023/07/30 00:17:39;;;;;;;0.03;0.03;;;;;;;18.72;62.77;100941.03;5095393;28;20042;-80
2023/07/30 00:20:07;;;;;;;0.10;0.10;;;;;;;18.73;62.93;100942.78;5095523;28;20032;-79
2023/07/30 00:22:33;;;;;;;0.10;0.10;;;;;;;18.74;63.18;100936.47;5091128;28;20376;-79
2023/07/30 00:25:00;;;;;;;0.85;0.85;;;;;;;18.74;63.00;100941.84;5070467;28;20029;-80
2023/07/30 00:27:26;;;;;;;0.10;0.10;;;;;;;18.79;63.00;100940.72;5087731;28;20494;-79
2023/07/30 00:29:52;;;;;;;0.10;0.10;;;;;;;18.83;62.78;100944.97;5093044;28;20032;-80
2023/07/30 00:32:18;;;;;;;0.10;0.10;;;;;;;18.86;62.79;100934.06;5092142;28;20095;-80
2023/07/30 00:34:44;;;;;;;1.10;1.10;;;;;;;18.83;63.21;100944.97;5095702;28;20512;-80
2023/07/30 00:37:10;;;;;;;0.10;0.10;;;;;;;18.86;62.81;100944.81;5105653;28;20032;-82
2023/07/30 00:39:36;;;;;;;0.10;0.10;;;;;;;18.82;63.53;100944.09;5108624;28;20043;-81
2023/07/30 00:42:02;;;;;;;0.10;0.10;;;;;;;18.84;63.36;100946.69;5107279;28;20380;-82
2023/07/30 00:44:29;;;;;;;0.30;0.30;;;;;;;18.86;62.97;100956.41;5104071;28;20036;-81
2023/07/30 00:46:55;;;;;;;0.32;0.32;;;;;;;18.86;63.25;100952.88;5105260;28;20313;-82
2023/07/30 00:49:21;;;;;;;0.20;0.20;;;;;;;18.85;63.31;100953.81;5105888;28;20028;-81
2023/07/30 00:51:47;;;;;;;0.25;0.25;;;;;;;18.89;63.42;100945.53;5105862;28;20032;-80
2023/07/30 00:54:13;;;;;;;0.10;0.10;;;;;;;18.87;63.73;100951.91;5105875;28;20038;-81
2023/07/30 00:56:48;;;;;;;0.52;0.52;;;;;;;18.81;63.71;100957.63;5109674;28;20441;-81
2023/07/30 00:59:14;;;;;;;0.00;0.00;;;;;;;18.81;64.21;100965.66;5104654;28;20562;-81
2023/07/30 01:01:43;;;;;;;0.10;0.10;;;;;;;18.80;64.20;100959.41;5104801;28;20039;-81
2023/07/30 01:04:09;;;;;;;0.10;0.10;;;;;;;18.84;64.30;100962.81;5104194;28;20021;-80
2023/07/30 01:06:35;;;;;;;0.75;0.63;;;;;;;18.79;64.28;100965.75;5105247;28;20081;-81
2023/07/30 01:09:02;;;;;;;0.10;0.10;;;;;;;18.80;64.50;100966.59;5105437;28;20051;-81
2023/07/30 01:11:29;;;;;;;2.20;1.20;;;;;;;18.82;64.58;100959.34;5105406;28;20483;-81
2023/07/30 01:13:56;;;;;;;0.00;0.00;;;;;;;18.79;64.88;100959.50;5106941;28;20106;-82
2023/07/30 01:16:23;;;;;;;0.10;0.10;;;;;;;18.80;64.25;100966.59;5102626;28;20036;-82
2023/07/30 01:18:49;;;;;;;0.10;0.10;;;;;;;18.77;64.82;100973.00;5099993;28;20024;-82
2023/07/30 01:21:15;;;;;;;0.05;0.05;;;;;;;18.79;65.00;100964.88;5097079;28;20042;-82
2023/07/30 01:23:41;;;;;;;0.03;0.03;;;;;;;18.82;64.77;100970.94;5099494;28;20043;-82
2023/07/30 01:26:15;;;;;;;0.30;0.30;;;;;;;18.76;65.30;100972.13;5108638;28;20024;-83
2023/07/30 01:28:48;;;;;;;0.08;0.08;;;;;;;18.80;65.49;100967.47;5107755;28;20035;-82
2023/07/30 01:31:14;;;;;;;;;;;;;;;18.93;64.94;100965.06;5107102;28;20031;-81
2023/07/30 01:33:41;;;;;;;1.27;1.27;;;;;;;18.86;64.65;100967.13;5109668;28;19907;-81
2023/07/30 01:36:11;;;;;;;0.47;0.47;;;;;;;18.88;64.82;100977.81;5114322;28;20025;-81
2023/07/30 01:38:39;;;;;;;0.10;0.10;;;;;;;18.86;64.88;100968.97;5113223;28;20518;-82
2023/07/30 01:41:05;;;;;;;0.15;0.15;;;;;;;18.75;65.72;100967.72;5109546;28;20039;-82
2023/07/30 01:43:31;;;;;;;0.10;0.10;;;;;;;18.78;65.01;100963.13;5107757;28;20027;-82
2023/07/30 01:45:57;;;;;;;1.58;1.48;;;;;;;18.74;65.30;100966.00;5105524;28;20028;-82
2023/07/30 01:48:24;;;;;;;0.10;0.10;;;;;;;18.77;65.60;100970.31;5105289;28;20089;-82
2023/07/30 01:50:50;;;;;;;0.40;0.40;;;;;;;18.69;66.01;100969.84;5105634;28;20050;-81
2023/07/30 01:53:17;;;;;;;0.10;0.10;;;;;;;18.68;66.14;100973.47;5107555;28;20106;-82
2023/07/30 01:55:45;;;;;;;0.00;0.00;;;;;;;18.66;66.60;100970.88;5104129;28;20020;-82
2023/07/30 01:58:13;;;;;;;0.10;0.10;;;;;;;18.65;66.71;100974.50;5099757;28;20084;-81
2023/07/30 02:00:40;;;;;;;0.10;0.10;;;;;;;18.68;66.33;100979.72;5107046;28;20039;-82
2023/07/30 02:03:06;;;;;;;1.13;1.10;;;;;;;18.67;66.39;100972.63;5106545;28;20063;-81
2023/07/30 02:05:32;;;;;;;0.73;0.73;;;;;;;18.63;67.26;100981.78;5102184;28;20039;-81
2023/07/30 02:07:59;;;;;;;0.30;0.30;;;;;;;18.60;66.95;100981.94;5105755;28;20032;-81
2023/07/30 02:10:25;;;;;;;0.95;0.95;;;;;;;18.58;67.38;100984.69;5103090;28;20531;-81
2023/07/30 02:12:51;;;;;;;0.10;0.10;;;;;;;18.59;67.31;100980.19;5087848;28;20028;-80
2023/07/30 02:15:18;;;;;;;0.32;0.32;;;;;;;18.58;66.92;100981.16;5107555;28;20114;-81
2023/07/30 02:17:44;;;;;;;2.75;2.38;;;;;;;18.57;67.63;100976.72;5099087;28;20033;-82
2023/07/30 02:20:10;;;;;;;0.10;0.10;;;;;;;18.57;67.55;100976.72;5091439;28;20031;-82
2023/07/30 02:22:36;;;;;;;3.30;0.57;;;;;;;18.54;67.83;100971.50;5092087;28;20510;-81
2023/07/30 02:25:02;;;;;;;0.28;0.28;;;;;;;18.47;67.77;100975.44;5102931;28;20086;-81
2023/07/30 02:27:28;;;;;;;0.10;0.10;;;;;;;18.41;68.02;100977.50;5108162;28;20046;-80
2023/07/30 02:29:55;;;;;;;0.10;0.10;;;;;;;18.36;68.60;100966.13;5115994;28;20052;-80
2023/07/30 02:32:21;;;;;;;0.20;0.20;;;;;;;18.36;68.11;100963.47;5113453;28;20028;-80
2023/07/30 02:34:47;;;;;;;0.10;0.10;;;;;;;18.31;68.46;100970.88;5122118;28;20042;-81
2023/07/30 02:37:13;;;;;;;0.52;0.52;;;;;;;18.37;68.28;100965.19;5116550;28;20046;-80
2023/07/30 02:39:39;;;;;;;0.10;0.10;;;;;;;18.32;68.32;100971.72;5110994;28;20099;-81
2023/07/30 02:42:05;;;;;;;0.10;0.10;;;;;;;18.34;68.70;100964.47;5114428;28;20039;-81
2023/07/30 02:44:32;;;;;;;0.22;0.22;;;;;;;18.33;69.35;100962.75;5106504;28;20025;-80
2023/07/30 02:46:58;;;;;;;0.10;0.10;;;;;;;18.26;69.12;100965.72;5097605;28;20096;-80
2023/07/30 02:49:24;;;;;;;0.15;0.15;;;;;;;18.31;69.01;100965.50;5110209;28;20026;-80
2023/07/30 02:51:50;;;;;;;1.15;0.82;;;;;;;18.33;68.80;100963.63;5118097;28;20028;-80
2023/07/30 02:54:16;;;;;;;0.10;0.10;;;;;;;18.30;69.14;100963.75;5111523;28;20023;-81
2023/07/30 02:56:43;;;;;;;0.10;0.10;;;;;;;18.29;69.59;100967.38;5106958;28;20024;-81
2023/07/30 02:59:09;;;;;;;0.20;0.20;;;;;;;18.29;69.42;100967.38;5110655;28;20025;-81
2023/07/30 03:01:35;;;;;;;0.15;0.15;;;;;;;18.23;70.10;100968.59;5107129;28;20035;-82
2023/07/30 03:04:02;;;;;;;0.20;0.20;;;;;;;18.25;69.62;100961.31;5108902;28;20020;-81
2023/07/30 03:06:28;;;;;;;0.10;0.10;;;;;;;18.25;69.21;100960.44;5108837;28;20031;-81
2023/07/30 03:08:54;;;;;;;0.10;0.10;;;;;;;18.15;70.56;100969.91;5110387;28;20020;-81
2023/07/30 03:11:21;;;;;;;0.43;0.43;;;;;;;18.16;70.72;100971.66;5103068;28;20043;-82
2023/07/30 03:13:47;;;;;;;0.10;0.10;;;;;;;18.15;69.29;100959.19;5101877;28;20111;-80
2023/07/30 03:16:14;;;;;;;0.10;0.10;;;;;;;18.13;70.08;100963.75;5101516;28;20083;-81
2023/07/30 03:18:40;;;;;;;0.25;0.25;;;;;;;18.10;70.78;100965.63;5101767;28;20039;-81
2023/07/30 03:21:06;;;;;;;0.40;0.40;;;;;;;18.06;71.24;100974.78;5099269;28;20020;-81
2023/07/30 03:23:32;;;;;;;0.05;0.05;;;;;;;18.13;70.99;100974.47;5097525;28;20111;-82
2023/07/30 03:26:00;;;;;;;0.10;0.10;;;;;;;18.14;71.34;100962.81;5097964;28;20024;-81
2023/07/30 03:28:26;;;;;;;0.10;0.10;;;;;;;18.16;71.03;100968.97;5097827;28;20028;-82
2023/07/30 03:30:52;;;;;;;0.10;0.10;;;;;;;18.11;71.66;100972.72;5100652;28;20032;-82
2023/07/30 03:33:18;;;;;;;0.10;0.10;;;;;;;18.15;71.66;100969.91;5098366;28;20031;-82
2023/07/30 03:35:44;;;;;;;0.10;0.10;;;;;;;18.16;71.78;100975.19;5104106;28;21053;-82
2023/07/30 03:38:11;;;;;;;0.38;0.38;;;;;;;18.19;71.99;100971.50;5101829;28;20103;-82
2023/07/30 03:40:37;;;;;;;0.10;0.10;;;;;;;18.17;71.82;100963.53;5099125;28;20094;-82
2023/07/30 03:43:03;;;;;;;0.10;0.10;;;;;;;18.21;71.62;100973.16;5098216;28;20050;-81
2023/07/30 03:45:29;;;;;;;0.45;0.45;;;;;;;18.22;71.44;100968.66;5099447;28;20048;-81
2023/07/30 03:47:55;;;;;;;0.10;0.10;;;;;;;18.24;72.14;100961.38;5106367;28;20036;-82
2023/07/30 03:50:21;;;;;;;0.10;0.10;;;;;;;18.29;71.61;100972.75;5097016;28;20031;-82
2023/07/30 03:52:48;;;;;;;0.20;0.20;;;;;;;18.39;71.17;100973.16;5106441;28;20110;-82
2023/07/30 03:55:15;;;;;;;0.10;0.10;;;;;;;18.36;71.44;100968.81;5097885;28;20538;-82
2023/07/30 03:57:41;;;;;;;7.03;0.85;;;;;;;18.46;71.49;100979.09;5091187;28;20059;-82
2023/07/30 04:00:07;;;;;;;5.32;1.83;;;;;;;18.48;71.31;100977.19;5105950;28;20089;-83
2023/07/30 04:02:33;;;;;;;0.10;0.10;;;;;;;18.46;71.99;100977.28;5106768;28;20418;-83
2023/07/30 04:04:59;;;;;;;0.10;0.10;;;;;;;18.49;71.43;100981.63;5105219;28;20039;-81
2023/07/30 04:07:25;;;;;;;0.05;0.05;;;;;;;18.43;71.55;100983.66;5096326;28;20090;-81
2023/07/30 04:09:52;;;;;;;0.10;0.10;;;;;;;18.42;72.01;100984.59;5095819;28;20093;-81
2023/07/30 04:12:19;;;;;;;0.10;0.10;;;;;;;18.42;71.71;100984.59;5085950;28;20059;-82
2023/07/30 04:14:45;;;;;;;0.10;0.10;;;;;;;18.40;71.62;100981.13;5086922;28;20017;-80
2023/07/30 04:17:11;;;;;;;1.05;1.05;;;;;;;18.40;71.97;100981.13;5105890;28;20080;-80
2023/07/30 04:19:37;;;;;;;0.20;0.20;;;;;;;18.43;71.07;100990.84;5106449;28;20062;-82
2023/07/30 04:22:03;;;;;;;0.85;0.52;;;;;;;18.42;71.61;101000.69;5099353;28;20059;-81
2023/07/30 04:24:29;;;;;;;0.13;0.13;;;;;;;18.43;71.92;100994.41;5101395;28;20040;-80
2023/07/30 04:26:55;;;;;;;0.75;0.75;;;;;;;18.40;72.18;100986.50;5100071;28;20055;-81
2023/07/30 04:29:21;;;;;;;0.10;0.10;;;;;;;18.46;70.95;100997.88;5096101;28;20027;-81
2023/07/30 04:31:47;;;;;;;0.70;0.70;;;;;;;18.48;71.45;100990.59;5087411;28;20044;-81
2023/07/30 04:34:13;;;;;;;0.10;0.10;;;;;;;18.51;71.62;100988.63;5086187;28;20033;-81
2023/07/30 04:36:39;;;;;;;0.10;0.10;;;;;;;18.49;72.08;100995.91;5087756;28;20514;-81
2023/07/30 04:39:05;;;;;;;0.10;0.10;;;;;;;18.51;72.55;100990.47;5086744;28;20072;-81
2023/07/30 04:41:31;;;;;;;0.10;0.10;;;;;;;18.55;72.13;100986.66;5091392;28;20066;-79
2023/07/30 04:43:58;;;;;;;0.10;0.10;;;;;;;18.54;72.15;100990.28;5094670;28;20020;-80
2023/07/30 04:46:25;;;;;;;7.55;0.82;;;;;;;18.54;72.61;100995.66;5103791;28;20025;-81
2023/07/30 04:48:51;;;;;;;0.30;0.30;;;;;;;18.58;72.32;101000.78;5107472;28;20055;-82
2023/07/30 04:51:17;;;;;;;0.10;0.10;;;;;;;18.59;72.82;100996.28;5107493;28;20020;-82
2023/07/30 04:53:43;;;;;;;0.05;0.05;;;;;;;18.61;72.43;101005.13;5107818;28;20494;-82
2023/07/30 04:56:09;;;;;;;0.13;0.13;;;;;;;18.63;72.65;101003.25;5108064;28;20067;-82
2023/07/30 04:58:35;;;;;;;0.10;0.10;;;;;;;18.68;72.51;100995.81;5089019;28;20020;-83
2023/07/30 05:01:01;;;;;;;0.10;0.10;;;;;;;18.71;72.26;100995.66;5106694;28;20100;-83
2023/07/30 05:03:27;;;;;;;0.10;0.10;;;;;;;18.79;72.25;101003.34;5106925;28;20016;-81
2023/07/30 05:05:54;;;;;;;0.10;0.10;;;;;;;18.81;72.14;101012.16;5098941;28;20059;-81
2023/07/30 05:08:20;;;;;;;0.30;0.30;;;;;;;18.71;72.75;101014.44;5109955;28;20024;-82
2023/07/30 05:10:46;;;;;;;0.65;0.65;;;;;;;18.79;72.39;101002.44;5109926;28;20122;-80
2023/07/30 05:13:13;;;;;;;0.10;0.10;;;;;;;18.81;72.28;101001.41;5111696;28;20035;-81
2023/07/30 05:15:39;;;;;;;0.50;0.30;;;;;;;18.83;72.18;101010.28;5114671;28;20038;-82
2023/07/30 05:18:05;;;;;;;0.10;0.10;;;;;;;18.87;71.78;101005.63;5115849;28;20101;-82
2023/07/30 05:20:31;;;;;;;0.10;0.10;;;;;;;18.85;72.03;101004.81;5109553;28;20020;-82
2023/07/30 05:22:57;;;;;;;0.10;0.10;;;;;;;18.87;71.79;101005.63;5107884;28;20024;-82
2023/07/30 05:25:23;;;;;;;0.10;0.10;;;;;;;18.82;72.15;101018.41;5093629;28;20046;-82
2023/07/30 05:27:49;;;;;;;0.88;0.85;;;;;;;18.80;72.14;101013.09;5108190;28;20039;-82
2023/07/30 05:30:18;;;;;;;0.10;0.10;;;;;;;18.82;72.27;101016.56;5103585;28;20083;-82
2023/07/30 05:32:44;;;;;;;0.13;0.13;;;;;;;18.89;71.79;101017.13;5087373;28;20028;-82
2023/07/30 05:35:10;;;;;;;0.10;0.10;;;;;;;18.90;71.73;101014.41;5088189;28;20071;-81
2023/07/30 05:37:36;;;;;;;1.23;1.13;;;;;;;18.96;71.56;101013.19;5087851;28;20043;-82
2023/07/30 05:40:03;;;;;;;0.45;0.45;;;;;;;18.95;71.77;101014.16;5088282;28;20080;-81
2023/07/30 05:42:29;;;;;;;0.10;0.10;;;;;;;18.96;71.51;101018.56;5082464;28;20039;-81
2023/07/30 05:44:55;;;;;;;0.20;0.20;;;;;;;19.03;71.45;101021.81;5082484;28;20071;-81
2023/07/30 05:47:21;;;;;;;0.17;0.17;;;;;;;19.03;70.96;101011.94;5082322;28;20042;-82
2023/07/30 05:49:47;;;;;;;0.95;0.65;;;;;;;19.05;71.06;101015.41;5084308;28;20036;-81
2023/07/30 05:52:13;;;;;;;1.08;1.08;;;;;;;18.99;71.45;101020.22;5083083;28;20048;-81
2023/07/30 05:54:39;;;;;;;1.55;1.45;;;;;;;19.02;71.42;101014.72;5083428;28;20047;-81
2023/07/30 05:57:06;;;;;;;0.10;0.10;;;;;;;19.11;71.04;101010.66;5085399;28;20044;-83
2023/07/30 05:59:32;;;;;;;0.10;0.10;;;;;;;19.16;71.04;101013.97;5086833;28;20047;-80
2023/07/30 06:02:03;;;;;;;0.30;0.30;;;;;;;19.21;70.88;101036.06;5087336;28;20082;-83
2023/07/30 06:04:30;;;;;;;0.10;0.10;;;;;;;19.25;70.61;101021.53;5089347;28;20035;-82
2023/07/30 06:06:57;;;;;;;0.30;0.30;;;;;;;19.33;70.72;101022.00;5089422;28;20037;-83
2023/07/30 06:09:23;;;;;;;0.10;0.10;;;;;;;19.46;70.49;101022.19;5088492;28;20020;-82
2023/07/30 06:11:49;;;;;;;0.20;0.20;;;;;;;19.48;70.17;101014.06;5087838;28;20092;-83
2023/07/30 06:14:15;;;;;;;5.35;0.93;;;;;;;19.60;69.73;101010.69;5099583;28;20490;-83
2023/07/30 06:16:42;;;;;;;0.00;0.00;;;;;;;19.59;69.75;101006.28;5108758;28;20050;-83
2023/07/30 06:19:08;;;;;;;0.10;0.10;;;;;;;19.63;69.31;101001.59;5110404;28;20093;-83
2023/07/30 06:21:34;;;;;;;0.50;0.50;;;;;;;19.72;68.97;101004.59;5111604;28;20107;-82
2023/07/30 06:24:04;;;;;;;0.10;0.10;;;;;;;19.76;68.96;101005.31;5100948;28;20032;-83
2023/07/30 06:26:30;;;;;;;0.20;0.20;;;;;;;19.73;68.53;101003.66;5094698;28;20036;-83
2023/07/30 06:28:56;;;;;;;0.10;0.10;;;;;;;19.76;68.08;101008.00;5100270;28;20030;-83
2023/07/30 06:31:22;;;;;;;0.10;0.10;;;;;;;19.75;67.79;101013.47;5110028;28;20024;-83
2023/07/30 06:33:48;;;;;;;0.10;0.10;;;;;;;19.71;67.88;101013.66;5100723;28;20046;-82
2023/07/30 06:36:15;;;;;;;0.10;0.10;;;;;;;19.64;67.73;101016.75;5089269;28;20126;-82
2023/07/30 06:38:41;;;;;;;0.10;0.10;;;;;;;19.65;67.73;101016.69;5089033;28;20085;-81
2023/07/30 06:41:07;;;;;;;0.10;0.10;;;;;;;19.63;67.44;101013.19;5108081;28;20050;-82
2023/07/30 06:43:33;;;;;;;0.20;0.20;;;;;;;19.65;67.65;101019.38;5108962;28;20057;-82
2023/07/30 06:45:59;;;;;;;0.10;0.10;;;;;;;19.70;67.44;101019.09;5109619;28;20032;-82
2023/07/30 06:48:25;;;;;;;0.20;0.20;;;;;;;19.83;67.12;101032.78;5109214;28;20103;-80
2023/07/30 06:50:51;;;;;;;2.72;1.38;;;;;;;19.83;66.90;101022.00;5109605;28;20028;-81
2023/07/30 06:53:17;;;;;;;0.30;0.30;;;;;;;19.88;66.98;101019.94;5111355;28;20027;-82
2023/07/30 06:55:44;;;;;;;0.15;0.15;;;;;;;19.95;66.62;101026.69;5107540;28;20095;-80
2023/07/30 06:58:11;;;;;;;0.30;0.30;;;;;;;20.07;66.20;101024.25;5107085;28;20487;-82
2023/07/30 07:00:37;;;;;;;0.10;0.10;;;;;;;20.18;66.08;101029.91;5107862;28;20038;-82
2023/07/30 07:03:03;;;;;;;0.10;0.10;;;;;;;20.28;65.53;101022.16;5106181;28;20628;-82
2023/07/30 07:05:29;;;;;;;0.10;0.10;;;;;;;20.22;65.12;101031.44;5097622;28;20058;-82
2023/07/30 07:07:55;;;;;;;0.20;0.20;;;;;;;20.22;64.33;101019.81;5104962;28;20505;-82
2023/07/30 07:10:22;;;;;;;0.35;0.35;;;;;;;20.27;64.33;101015.91;5086271;28;20044;-82
2023/07/30 07:12:50;;;;;;;0.35;0.35;;;;;;;20.24;64.59;101024.16;5086153;28;20104;-82
2023/07/30 07:15:16;;;;;;;0.10;0.10;;;;;;;20.37;64.57;101027.00;5098955;28;20051;-82
2023/07/30 07:17:43;;;;;;;0.10;0.10;;;;;;;20.24;64.46;101021.47;5105832;28;20040;-83
2023/07/30 07:20:10;;;;;;;0.10;0.10;;;;;;;20.19;64.22;101028.94;5106117;28;20395;-82
2023/07/30 07:22:36;;;;;;;0.32;0.32;;;;;;;20.19;64.28;101035.19;5087742;28;20119;-82
2023/07/30 07:25:02;;;;;;;0.10;0.10;;;;;;;20.21;64.46;101032.38;5107602;28;20040;-82
2023/07/30 07:27:29;;;;;;;2.03;0.93;;;;;;;20.12;64.34;101033.78;5107135;28;20024;-83
2023/07/30 07:30:02;;;;;;;0.10;0.10;;;;;;;20.18;64.30;101040.66;5106727;28;20039;-82
2023/07/30 07:32:28;;;;;;;0.25;0.25;;;;;;;20.19;64.66;101039.69;5099464;28;20024;-82
2023/07/30 07:34:54;;;;;;;10.18;1.65;;;;;;;20.13;64.44;101046.28;5107029;28;20024;-83
2023/07/30 07:37:21;;;;;;;0.85;0.75;;;;;;;20.08;64.70;101042.16;5106498;28;20024;-82
2023/07/30 07:39:47;;;;;;;0.03;0.03;;;;;;;20.06;64.32;101049.41;5107098;28;20032;-82
2023/07/30 07:42:13;;;;;;;0.55;0.55;;;;;;;20.03;64.05;101043.25;5105822;28;20028;-81
2023/07/30 07:44:39;;;;;;;0.10;0.10;;;;;;;20.09;64.07;101043.84;5106670;28;20055;-83
2023/07/30 07:47:05;;;;;;;0.10;0.10;;;;;;;20.11;63.92;101050.91;5110031;28;20012;-81
2023/07/30 07:49:34;;;;;;;0.10;0.10;;;;;;;20.18;63.82;101046.88;5116051;28;20040;-82
2023/07/30 07:52:00;;;;;;;0.10;0.10;;;;;;;20.11;64.02;101056.28;5109234;28;20089;-82
2023/07/30 07:54:26;;;;;;;0.15;0.15;;;;;;;20.14;63.81;101053.41;5104962;28;20028;-83
2023/07/30 07:56:52;;;;;;;0.52;0.22;;;;;;;20.29;62.74;101057.03;5108720;28;20096;-81
2023/07/30 07:59:18;;;;;;;0.60;0.60;;;;;;;20.55;62.93;101051.97;5095957;28;20047;-82
2023/07/30 08:01:44;;;;;;;0.40;0.20;;;;;;;20.41;62.03;101055.47;5094383;28;20028;-82
2023/07/30 08:04:10;;;;;;;0.10;0.10;;;;;;;20.56;61.83;101053.72;5092279;28;20024;-82
2023/07/30 08:06:36;;;;;;;10.65;1.48;;;;;;;20.66;61.58;101059.41;5091543;28;20039;-82
2023/07/30 08:09:02;;;;;;;0.08;0.08;;;;;;;20.76;61.81;101063.34;5091199;28;20021;-81
2023/07/30 08:11:28;;;;;;;2.60;1.90;;;;;;;20.87;60.87;101068.06;5091335;28;20047;-82
2023/07/30 08:13:54;;;;;;;0.45;0.45;;;;;;;21.01;60.62;101070.81;5092615;28;20388;-82
2023/07/30 08:16:20;;;;;;;0.40;0.40;;;;;;;21.14;60.44;101070.06;5092183;28;20016;-83
2023/07/30 08:18:46;;;;;;;0.10;0.10;;;;;;;21.08;60.10;101065.03;5092532;28;20032;-81
2023/07/30 08:21:13;;;;;;;1.55;1.13;;;;;;;21.21;59.77;101070.53;5092347;28;20028;-80
2023/07/30 08:23:39;;;;;;;5.22;1.55;;;;;;;21.33;59.17;101070.66;5089046;28;20025;-82
2023/07/30 08:26:05;;;;;;;0.30;0.30;;;;;;;21.44;59.21;101066.44;5087112;28;20032;-81
2023/07/30 08:28:31;;;;;;;0.10;0.10;;;;;;;21.50;59.44;101066.06;5091902;28;20067;-82
2023/07/30 08:31:02;;;;;;;0.45;0.45;;;;;;;21.64;59.39;101049.88;5095519;28;20050;-81
2023/07/30 08:33:29;;;;;;;0.10;0.10;;;;;;;21.55;58.98;101053.13;5076795;28;20039;-81
2023/07/30 08:35:57;;;;;;;0.20;0.20;;;;;;;21.44;57.81;101056.50;5093993;28;20040;-81
2023/07/30 08:38:23;;;;;;;0.10;0.10;;;;;;;21.45;59.13;101062.78;5089549;28;20028;-81
2023/07/30 08:40:50;;;;;;;0.00;0.00;;;;;;;21.41;58.85;101064.78;5093351;28;20021;-82
2023/07/30 08:43:16;;;;;;;0.10;0.10;;;;;;;21.33;57.96;101070.66;5100995;28;20114;-82
2023/07/30 08:45:43;;;;;;;0.10;0.10;;;;;;;21.26;56.61;101068.41;5095989;28;20154;-82
2023/07/30 08:48:09;;;;;;;0.10;0.10;;;;;;;21.21;55.01;101068.72;5095239;28;20016;-82
2023/07/30 08:50:36;;;;;;;0.10;0.10;;;;;;;20.93;54.62;101062.31;5090585;28;20027;-82
2023/07/30 08:53:03;;;;;;;0.10;0.10;;;;;;;21.13;54.86;101066.50;5097937;28;20107;-81
2023/07/30 08:55:32;;;;;;;0.10;0.10;;;;;;;21.19;54.69;101070.63;5091155;28;20039;-81
2023/07/30 08:58:02;;;;;;;0.00;0.00;;;;;;;21.32;54.10;101077.00;5096194;28;20027;-82
2023/07/30 09:00:36;;;;;;;0.10;0.10;;;;;;;21.26;53.47;101074.69;5096366;28;20491;-81
2023/07/30 09:03:04;;;;;;;0.52;0.52;;;;;;;21.29;53.14;101077.19;5096447;28;20063;-80
2023/07/30 09:05:31;;;;;;;0.10;0.10;;;;;;;21.29;53.04;101087.13;5095031;28;20080;-81
2023/07/30 09:07:58;;;;;;;0.00;0.00;;;;;;;21.43;53.37;101080.88;5095172;28;20085;-81
2023/07/30 09:10:26;;;;;;;0.10;0.10;;;;;;;21.25;52.80;101086.44;5091784;28;20032;-80
2023/07/30 09:12:58;;;;;;;0.10;0.10;;;;;;;21.40;53.25;101072.97;5096773;28;20028;-81
2023/07/30 09:15:33;;;;;;;0.10;0.10;;;;;;;21.39;53.26;101085.56;5095060;28;20030;-80
2023/07/30 09:18:00;;;;;;;2.72;1.38;;;;;;;21.26;53.62;101084.59;5108051;28;20172;-81
2023/07/30 09:20:27;;;;;;;0.10;0.10;;;;;;;21.30;54.02;101084.31;5091539;28;20028;-82
2023/07/30 09:22:56;;;;;;;0.10;0.10;;;;;;;21.39;54.46;101088.28;5104856;28;20032;-82
2023/07/30 09:25:22;;;;;;;0.30;0.30;;;;;;;21.47;53.54;101094.06;5098481;28;20028;-82
2023/07/30 09:27:50;;;;;;;0.20;0.20;;;;;;;21.72;53.11;101084.47;5091259;28;20032;-82
2023/07/30 09:30:23;;;;;;;0.10;0.10;;;;;;;22.03;53.43;101087.03;5086297;28;20054;-81
2023/07/30 09:32:53;;;;;;;0.10;0.10;;;;;;;22.24;50.74;101080.25;5104483;28;20039;-83
2023/07/30 09:35:19;;;;;;;0.20;0.20;;;;;;;22.49;49.79;101081.34;5103933;28;20016;-82
2023/07/30 09:37:46;;;;;;;0.35;0.35;;;;;;;22.53;48.61;101088.28;5095127;28;20531;-82
2023/07/30 09:40:14;;;;;;;0.88;0.57;;;;;;;22.47;47.47;101099.50;5079272;28;20056;-80
2023/07/30 09:42:44;;;;;;;0.10;0.10;;;;;;;22.56;47.95;101087.22;5078874;28;20107;-83
2023/07/30 09:45:21;;;;;;;0.43;0.43;;;;;;;22.62;48.10;101098.47;5088240;28;20050;-81
2023/07/30 09:47:48;;;;;;;0.00;0.00;;;;;;;22.53;48.10;101096.38;5096958;28;20111;-83
2023/07/30 09:50:15;;;;;;;0.15;0.15;;;;;;;22.57;48.64;101099.75;5095316;28;20510;-85
2023/07/30 09:52:43;;;;;;;0.00;0.00;;;;;;;22.41;48.36;101116.94;5090256;28;20031;-85
2023/07/30 09:55:10;;;;;;;0.00;0.00;;;;;;;22.59;48.10;101117.59;5078049;28;20020;-84
2023/07/30 09:57:37;;;;;;;1.45;0.55;;;;;;;22.59;46.75;101097.78;5091357;28;20097;-84
2023/07/30 10:00:05;;;;;;;0.10;0.10;;;;;;;22.52;46.81;101109.97;5095665;28;20508;-84
2023/07/30 10:02:36;;;;;;;0.10;0.10;;;;;;;22.68;47.62;101118.81;5088953;28;20555;-84
2023/07/30 10:05:08;;;;;;;0.10;0.10;;;;;;;22.80;47.98;101116.25;5095150;28;20360;-83
2023/07/30 10:07:35;;;;;;;0.20;0.20;;;;;;;22.78;48.06;101121.75;5089738;28;20032;-84
2023/07/30 10:10:03;;;;;;;0.00;0.00;;;;;;;22.58;48.00;101117.66;5097327;28;20024;-85
2023/07/30 10:12:32;;;;;;;0.10;0.10;;;;;;;22.76;48.30;101126.38;5095112;28;20029;-83
2023/07/30 10:15:00;;;;;;;1.20;1.17;;;;;;;22.67;46.54;101126.97;5098692;28;20056;-85
2023/07/30 10:17:28;;;;;;;0.10;0.10;;;;;;;22.70;46.53;101129.50;5068821;28;20413;-84
2023/07/30 10:19:54;;;;;;;5.78;1.48;;;;;;;22.70;46.47;101138.44;5091454;28;20059;-84
2023/07/30 10:22:27;;;;;;;0.28;0.28;;;;;;;22.66;47.02;101136.06;5084451;28;20737;-84
2023/07/30 10:24:59;;;;;;;0.10;0.10;;;;;;;22.44;47.52;101138.38;5087555;28;20116;-84
2023/07/30 10:27:27;;;;;;;;;;;;;;;22.73;46.64;101137.38;5090256;28;20070;-83
2023/07/30 10:30:14;;;;;;;0.10;0.10;;;;;;;22.77;47.07;101144.34;5071396;28;19916;-84
2023/07/30 10:38:24;;;;;;;0.10;0.10;;;;;;;22.85;44.90;101146.50;5134998;27;20188;-81
2023/07/30 10:41:12;;;;;;;0.20;0.20;;;;;;;22.90;44.16;101136.25;5125174;27;20076;-79
2023/07/30 10:43:41;;;;;;;0.32;0.32;;;;;;;22.75;44.26;101151.66;5096217;28;20055;-80
2023/07/30 10:46:09;;;;;;;0.00;0.00;;;;;;;22.50;44.56;101164.06;5099868;28;20027;-79
2023/07/30 10:48:37;;;;;;;0.10;0.10;;;;;;;22.53;45.26;101153.09;5096323;28;20016;-81
2023/07/30 10:51:10;;;;;;;0.10;0.10;;;;;;;22.51;46.42;101154.16;5093097;28;20036;-79
2023/07/30 10:53:39;;;;;;;0.10;0.10;;;;;;;22.41;47.48;101157.44;5103502;28;20016;-79
2023/07/30 10:56:10;;;;;;;0.03;0.03;;;;;;;22.73;47.94;101154.47;5093243;28;20036;-80
2023/07/30 10:58:37;;;;;;;0.95;0.95;;;;;;;22.64;48.15;101171.25;5096834;28;20023;-80
2023/07/30 11:01:06;;;;;;;0.43;0.38;;;;;;;22.95;47.61;101158.41;5093518;28;20032;-80
2023/07/30 11:03:32;;;;;;;0.70;0.70;;;;;;;22.93;47.55;101153.13;5099381;28;20108;-78
2023/07/30 11:05:59;;;;;;;0.10;0.10;;;;;;;22.86;47.52;101164.47;5092752;28;20480;-80
2023/07/30 11:08:43;;;;;;;0.10;0.10;;;;;;;22.84;47.37;101167.28;5093488;28;20350;-80
2023/07/30 11:11:10;;;;;;;0.70;0.50;;;;;;;23.06;47.13;101182.03;5092451;28;20032;-80
2023/07/30 11:13:46;;;;;;;16.67;2.05;;;;;;;23.37;46.38;101155.63;5091946;28;20040;-79
2023/07/30 11:16:13;;;;;;;0.10;0.10;;;;;;;23.24;46.01;101158.31;5092026;28;20028;-79
2023/07/30 11:18:41;;;;;;;0.10;0.10;;;;;;;23.48;45.47;101163.88;5100960;28;20021;-79
2023/07/30 11:21:09;;;;;;;0.00;0.00;;;;;;;23.43;44.70;101168.72;5091845;28;20059;-80
2023/07/30 11:23:36;;;;;;;0.20;0.20;;;;;;;23.39;45.30;101168.06;5098630;28;20029;-79
2023/07/30 11:26:04;;;;;;;0.20;0.20;;;;;;;23.23;45.65;101170.97;5092506;28;20020;-80
2023/07/30 11:28:34;;;;;;;0.10;0.10;;;;;;;23.24;46.33;101177.22;5103528;28;20106;-79
2023/07/30 11:31:04;;;;;;;0.10;0.10;;;;;;;23.07;45.30;101183.75;5103475;28;20050;-80